Weather at Lake Isabella Airpark

Public forecast

Using degrees Fahrenheit for public forecast. Weather courtesy of forecast.io.

Closest aviation weather report (METAR) to Lake Isabella Airpark

Closest report is Mount Pleasant Municipal Airport, 10.7 nm (19.8 km) E. Retrieved 2020/09/18 13:15 UTC (0 seconds ago):

KMOP 181315Z AUTO 36006KT 10SM CLR 08/03 A3035 RMK AO2 T00770030

Closest aviation forecast (TAF) to Lake Isabella Airpark

Closest forecast is MBS International Airport, 39.8 nm (73.7 km) E. Retrieved 2020/09/18 12:22 UTC (43 minutes ago):

TAF KMBS 181120Z 1812/1912 35009KT P6SM SKC FM181500 03012G18KT P6SM SCT030 FM182300 07005KT P6SM SKC